LFQH weather

Ch√Ętillon Sur Seine Airfield
Burgundy, France

Public forecast

Using degrees Celsius for public forecast. Weather courtesy of forecast.io.

METAR (pilot weather report)

Closest report is Troyes-Barberey Airport, 36.5 nm (67.7 km) NW. Retrieved 2019/07/17 13:30 UTC (9 minutes ago):

LFQB 171330Z AUTO VRB07KT CAVOK 28/10 Q1014

TAF (pilot weather forecast)

Forecast is more than 12 hours old.

Closest forecast is Dijon-Bourgogne Airport, 40.2 nm (74.5 km) SSE. Retrieved 2015/06/01 00:11 UTC (4 years ago):

TAF LFSD 010600Z 0100/0124 CNL